sensor_id;sensor_type;location;lat;lon;timestamp;pressure;altitude;pressure_sealevel;temperature;humidity
46087;BME280;31824;49.648;8.640;2022-12-29T00:01:51;99724.38;;;10.50;100.00
46087;BME280;31824;49.648;8.640;2022-12-29T00:04:54;99720.66;;;10.48;100.00
46087;BME280;31824;49.648;8.640;2022-12-29T00:07:56;99718.69;;;10.45;100.00
46087;BME280;31824;49.648;8.640;2022-12-29T00:10:58;99722.00;;;10.53;100.00
46087;BME280;31824;49.648;8.640;2022-12-29T00:14:01;99718.03;;;10.48;100.00
46087;BME280;31824;49.648;8.640;2022-12-29T00:17:29;99717.00;;;10.46;100.00
46087;BME280;31824;49.648;8.640;2022-12-29T00:20:38;99724.06;;;10.47;100.00
46087;BME280;31824;49.648;8.640;2022-12-29T00:23:59;99717.38;;;10.51;100.00
46087;BME280;31824;49.648;8.640;2022-12-29T00:27:26;99719.34;;;10.53;100.00
46087;BME280;31824;49.648;8.640;2022-12-29T00:30:49;99725.28;;;10.61;100.00
46087;BME280;31824;49.648;8.640;2022-12-29T00:34:14;99716.31;;;10.59;100.00
46087;BME280;31824;49.648;8.640;2022-12-29T00:37:47;99719.09;;;10.50;100.00
46087;BME280;31824;49.648;8.640;2022-12-29T00:41:11;99716.59;;;10.52;100.00
46087;BME280;31824;49.648;8.640;2022-12-29T00:44:39;99722.38;;;10.58;100.00
46087;BME280;31824;49.648;8.640;2022-12-29T00:47:43;99717.00;;;10.46;100.00
46087;BME280;31824;49.648;8.640;2022-12-29T00:50:48;99717.41;;;10.40;100.00
46087;BME280;31824;49.648;8.640;2022-12-29T00:53:53;99707.81;;;10.41;100.00
46087;BME280;31824;49.648;8.640;2022-12-29T00:57:00;99711.63;;;10.44;100.00
46087;BME280;31824;49.648;8.640;2022-12-29T01:00:05;99704.13;;;10.49;100.00
46087;BME280;31824;49.648;8.640;2022-12-29T01:03:08;99705.84;;;10.49;100.00
46087;BME280;31824;49.648;8.640;2022-12-29T01:06:20;99706.88;;;10.51;100.00
46087;BME280;31824;49.648;8.640;2022-12-29T01:09:22;99702.16;;;10.57;100.00
46087;BME280;31824;49.648;8.640;2022-12-29T01:12:43;99698.72;;;10.68;100.00
46087;BME280;31824;49.648;8.640;2022-12-29T01:15:49;99690.56;;;10.75;100.00
46087;BME280;31824;49.648;8.640;2022-12-29T01:18:54;99687.84;;;11.06;100.00
46087;BME280;31824;49.648;8.640;2022-12-29T01:21:57;99698.59;;;11.09;100.00
46087;BME280;31824;49.648;8.640;2022-12-29T01:25:04;99682.78;;;10.87;100.00
46087;BME280;31824;49.648;8.640;2022-12-29T01:28:14;99687.44;;;10.69;100.00
46087;BME280;31824;49.648;8.640;2022-12-29T01:31:21;99693.09;;;10.63;100.00
46087;BME280;31824;49.648;8.640;2022-12-29T01:34:24;99701.09;;;10.55;100.00
46087;BME280;31824;49.648;8.640;2022-12-29T01:37:27;99707.94;;;10.53;100.00
46087;BME280;31824;49.648;8.640;2022-12-29T01:40:29;99702.81;;;10.54;100.00
46087;BME280;31824;49.648;8.640;2022-12-29T01:43:39;99690.84;;;10.58;100.00
46087;BME280;31824;49.648;8.640;2022-12-29T01:46:45;99704.66;;;10.55;100.00
46087;BME280;31824;49.648;8.640;2022-12-29T01:49:47;99707.00;;;10.52;100.00
46087;BME280;31824;49.648;8.640;2022-12-29T01:53:03;99699.41;;;10.45;100.00
46087;BME280;31824;49.648;8.640;2022-12-29T01:56:20;99695.72;;;10.33;100.00
46087;BME280;31824;49.648;8.640;2022-12-29T01:59:35;99696.13;;;10.37;100.00
46087;BME280;31824;49.648;8.640;2022-12-29T02:02:47;99703.97;;;10.78;100.00
46087;BME280;31824;49.648;8.640;2022-12-29T02:05:55;99719.97;;;11.24;100.00
46087;BME280;31824;49.648;8.640;2022-12-29T02:09:11;99706.94;;;11.26;100.00
46087;BME280;31824;49.648;8.640;2022-12-29T02:12:16;99701.09;;;11.18;100.00
46087;BME280;31824;49.648;8.640;2022-12-29T02:15:28;99706.06;;;11.15;100.00
46087;BME280;31824;49.648;8.640;2022-12-29T02:18:41;99700.13;;;11.18;100.00
46087;BME280;31824;49.648;8.640;2022-12-29T02:21:57;99696.97;;;11.22;100.00
46087;BME280;31824;49.648;8.640;2022-12-29T02:29:03;99691.38;;;11.39;100.00
46087;BME280;31824;49.648;8.640;2022-12-29T02:32:21;99691.69;;;11.32;100.00
46087;BME280;31824;49.648;8.640;2022-12-29T02:35:35;99694.19;;;11.30;100.00
46087;BME280;31824;49.648;8.640;2022-12-29T02:38:49;99693.66;;;11.35;100.00
46087;BME280;31824;49.648;8.640;2022-12-29T02:42:04;99687.44;;;11.34;100.00
46087;BME280;31824;49.648;8.640;2022-12-29T02:45:15;99677.47;;;11.30;100.00
46087;BME280;31824;49.648;8.640;2022-12-29T02:48:28;99674.06;;;11.31;100.00
46087;BME280;31824;49.648;8.640;2022-12-29T02:51:37;99655.66;;;11.31;100.00
46087;BME280;31824;49.648;8.640;2022-12-29T02:54:42;99660.91;;;11.31;100.00
46087;BME280;31824;49.648;8.640;2022-12-29T02:57:47;99663.53;;;11.31;100.00
46087;BME280;31824;49.648;8.640;2022-12-29T03:01:04;99663.78;;;11.34;100.00
46087;BME280;31824;49.648;8.640;2022-12-29T03:04:22;99659.88;;;11.29;100.00
46087;BME280;31824;49.648;8.640;2022-12-29T03:07:37;99664.66;;;11.45;100.00
46087;BME280;31824;49.648;8.640;2022-12-29T03:10:53;99646.22;;;11.45;100.00
46087;BME280;31824;49.648;8.640;2022-12-29T03:14:02;99634.84;;;11.34;100.00
46087;BME280;31824;49.648;8.640;2022-12-29T03:17:31;99647.53;;;11.50;100.00
46087;BME280;31824;49.648;8.640;2022-12-29T03:20:41;99639.28;;;11.45;100.00
46087;BME280;31824;49.648;8.640;2022-12-29T03:23:48;99618.56;;;11.38;100.00
46087;BME280;31824;49.648;8.640;2022-12-29T03:26:53;99626.69;;;11.41;100.00
46087;BME280;31824;49.648;8.640;2022-12-29T03:29:59;99615.63;;;11.23;100.00
46087;BME280;31824;49.648;8.640;2022-12-29T03:33:05;99618.75;;;10.97;100.00
46087;BME280;31824;49.648;8.640;2022-12-29T03:36:16;99597.38;;;10.92;100.00
46087;BME280;31824;49.648;8.640;2022-12-29T03:39:22;99607.75;;;10.91;100.00
46087;BME280;31824;49.648;8.640;2022-12-29T03:42:31;99611.16;;;10.90;100.00
46087;BME280;31824;49.648;8.640;2022-12-29T03:45:41;99608.16;;;10.85;100.00
46087;BME280;31824;49.648;8.640;2022-12-29T03:48:45;99612.13;;;10.80;100.00
46087;BME280;31824;49.648;8.640;2022-12-29T03:51:50;99606.75;;;10.78;100.00
46087;BME280;31824;49.648;8.640;2022-12-29T03:54:54;99603.91;;;10.97;100.00
46087;BME280;31824;49.648;8.640;2022-12-29T03:57:56;99613.00;;;10.91;100.00
46087;BME280;31824;49.648;8.640;2022-12-29T04:01:13;99597.47;;;10.94;100.00
46087;BME280;31824;49.648;8.640;2022-12-29T04:04:17;99588.06;;;11.08;100.00
46087;BME280;31824;49.648;8.640;2022-12-29T04:07:20;99607.66;;;11.11;100.00
46087;BME280;31824;49.648;8.640;2022-12-29T04:10:30;99600.66;;;11.12;100.00
46087;BME280;31824;49.648;8.640;2022-12-29T04:13:34;99589.41;;;11.03;100.00
46087;BME280;31824;49.648;8.640;2022-12-29T04:16:36;99589.53;;;11.04;100.00
46087;BME280;31824;49.648;8.640;2022-12-29T04:19:47;99606.66;;;10.99;100.00
46087;BME280;31824;49.648;8.640;2022-12-29T04:22:59;99593.69;;;10.90;100.00
46087;BME280;31824;49.648;8.640;2022-12-29T04:26:02;99601.56;;;10.90;100.00
46087;BME280;31824;49.648;8.640;2022-12-29T04:29:09;99588.69;;;10.93;100.00
46087;BME280;31824;49.648;8.640;2022-12-29T04:32:34;99584.69;;;10.98;100.00
46087;BME280;31824;49.648;8.640;2022-12-29T04:35:41;99596.16;;;10.99;100.00
46087;BME280;31824;49.648;8.640;2022-12-29T04:38:52;99581.13;;;11.08;100.00
46087;BME280;31824;49.648;8.640;2022-12-29T04:41:57;99582.16;;;11.10;100.00
46087;BME280;31824;49.648;8.640;2022-12-29T04:45:08;99599.38;;;11.07;100.00
46087;BME280;31824;49.648;8.640;2022-12-29T04:48:28;99591.56;;;11.19;100.00
46087;BME280;31824;49.648;8.640;2022-12-29T04:51:52;99598.16;;;11.13;100.00
46087;BME280;31824;49.648;8.640;2022-12-29T04:54:56;99601.63;;;11.12;100.00
46087;BME280;31824;49.648;8.640;2022-12-29T04:57:59;99587.72;;;11.03;100.00
46087;BME280;31824;49.648;8.640;2022-12-29T05:01:04;99594.75;;;11.14;100.00
46087;BME280;31824;49.648;8.640;2022-12-29T05:04:12;99599.38;;;11.07;100.00
46087;BME280;31824;49.648;8.640;2022-12-29T05:07:19;99591.13;;;11.02;100.00
46087;BME280;31824;49.648;8.640;2022-12-29T05:10:28;99603.31;;;11.12;100.00
46087;BME280;31824;49.648;8.640;2022-12-29T05:13:35;99597.13;;;11.11;100.00
46087;BME280;31824;49.648;8.640;2022-12-29T05:16:37;99611.50;;;11.05;100.00
46087;BME280;31824;49.648;8.640;2022-12-29T05:19:42;99598.47;;;11.06;100.00
46087;BME280;31824;49.648;8.640;2022-12-29T05:22:46;99599.25;;;11.05;100.00
46087;BME280;31824;49.648;8.640;2022-12-29T05:25:50;99596.91;;;11.08;100.00
46087;BME280;31824;49.648;8.640;2022-12-29T05:29:03;99588.81;;;11.17;100.00
46087;BME280;31824;49.648;8.640;2022-12-29T05:32:06;99590.78;;;11.20;100.00
46087;BME280;31824;49.648;8.640;2022-12-29T05:35:09;99593.97;;;11.15;100.00
46087;BME280;31824;49.648;8.640;2022-12-29T05:38:12;99601.78;;;11.26;100.00
46087;BME280;31824;49.648;8.640;2022-12-29T05:41:16;99600.75;;;11.24;100.00
46087;BME280;31824;49.648;8.640;2022-12-29T05:44:23;99603.19;;;11.32;100.00
46087;BME280;31824;49.648;8.640;2022-12-29T05:47:51;99604.84;;;11.42;100.00
46087;BME280;31824;49.648;8.640;2022-12-29T05:51:14;99595.91;;;11.40;100.00
46087;BME280;31824;49.648;8.640;2022-12-29T05:54:24;99589.63;;;11.38;100.00
46087;BME280;31824;49.648;8.640;2022-12-29T05:57:33;99589.91;;;11.31;100.00
46087;BME280;31824;49.648;8.640;2022-12-29T06:00:54;99587.84;;;11.27;100.00
46087;BME280;31824;49.648;8.640;2022-12-29T06:03:56;99590.03;;;11.32;100.00
46087;BME280;31824;49.648;8.640;2022-12-29T06:06:58;99592.31;;;11.28;100.00
46087;BME280;31824;49.648;8.640;2022-12-29T06:10:10;99589.91;;;11.31;100.00
46087;BME280;31824;49.648;8.640;2022-12-29T06:13:35;99588.78;;;11.27;100.00
46087;BME280;31824;49.648;8.640;2022-12-29T06:16:42;99581.25;;;11.32;100.00
46087;BME280;31824;49.648;8.640;2022-12-29T06:19:48;99579.78;;;11.36;100.00
46087;BME280;31824;49.648;8.640;2022-12-29T06:22:58;99582.66;;;11.39;100.00
46087;BME280;31824;49.648;8.640;2022-12-29T06:26:05;99583.81;;;11.42;100.00
46087;BME280;31824;49.648;8.640;2022-12-29T06:29:17;99587.78;;;11.37;100.00
46087;BME280;31824;49.648;8.640;2022-12-29T06:32:24;99575.66;;;11.39;100.00
46087;BME280;31824;49.648;8.640;2022-12-29T06:35:34;99578.56;;;11.42;100.00
46087;BME280;31824;49.648;8.640;2022-12-29T06:38:36;99580.25;;;11.42;100.00
46087;BME280;31824;49.648;8.640;2022-12-29T06:41:39;99571.28;;;11.28;100.00
46087;BME280;31824;49.648;8.640;2022-12-29T06:45:18;99584.84;;;11.22;100.00
46087;BME280;31824;49.648;8.640;2022-12-29T06:48:20;99576.47;;;11.16;100.00
46087;BME280;31824;49.648;8.640;2022-12-29T06:51:22;99570.53;;;11.19;100.00
46087;BME280;31824;49.648;8.640;2022-12-29T06:54:28;99580.59;;;11.12;100.00
46087;BME280;31824;49.648;8.640;2022-12-29T06:57:35;99564.66;;;11.11;100.00
46087;BME280;31824;49.648;8.640;2022-12-29T07:00:39;99562.19;;;11.12;100.00
46087;BME280;31824;49.648;8.640;2022-12-29T07:03:46;99569.63;;;11.18;100.00
46087;BME280;31824;49.648;8.640;2022-12-29T07:06:48;99559.66;;;11.14;100.00
46087;BME280;31824;49.648;8.640;2022-12-29T07:09:51;99563.16;;;11.25;100.00
46087;BME280;31824;49.648;8.640;2022-12-29T07:12:59;99548.41;;;11.27;100.00
46087;BME280;31824;49.648;8.640;2022-12-29T07:16:08;99555.19;;;11.35;100.00
46087;BME280;31824;49.648;8.640;2022-12-29T07:19:11;99554.72;;;11.29;100.00
46087;BME280;31824;49.648;8.640;2022-12-29T07:22:13;99551.75;;;11.36;100.00
46087;BME280;31824;49.648;8.640;2022-12-29T07:25:16;99553.50;;;11.47;100.00
46087;BME280;31824;49.648;8.640;2022-12-29T07:28:21;99554.91;;;11.54;100.00
46087;BME280;31824;49.648;8.640;2022-12-29T07:31:29;99566.81;;;11.61;100.00
46087;BME280;31824;49.648;8.640;2022-12-29T07:34:35;99565.44;;;11.54;100.00
46087;BME280;31824;49.648;8.640;2022-12-29T07:37:39;99566.09;;;11.52;100.00
46087;BME280;31824;49.648;8.640;2022-12-29T07:40:41;99562.91;;;11.44;100.00
46087;BME280;31824;49.648;8.640;2022-12-29T07:43:46;99576.63;;;11.52;100.00
46087;BME280;31824;49.648;8.640;2022-12-29T07:47:17;99588.88;;;11.51;100.00
46087;BME280;31824;49.648;8.640;2022-12-29T07:50:19;99585.56;;;11.54;100.00
46087;BME280;31824;49.648;8.640;2022-12-29T07:53:21;99592.97;;;11.47;100.00
46087;BME280;31824;49.648;8.640;2022-12-29T07:56:23;99596.41;;;11.46;100.00
46087;BME280;31824;49.648;8.640;2022-12-29T07:59:26;99586.06;;;11.38;100.00
46087;BME280;31824;49.648;8.640;2022-12-29T08:02:29;99608.28;;;11.41;100.00
46087;BME280;31824;49.648;8.640;2022-12-29T08:05:32;99610.66;;;11.38;100.00
46087;BME280;31824;49.648;8.640;2022-12-29T08:08:35;99600.97;;;11.49;100.00
46087;BME280;31824;49.648;8.640;2022-12-29T08:11:37;99612.19;;;11.46;100.00
46087;BME280;31824;49.648;8.640;2022-12-29T08:14:39;99616.34;;;11.55;100.00
46087;BME280;31824;49.648;8.640;2022-12-29T08:17:43;99619.22;;;11.58;100.00
46087;BME280;31824;49.648;8.640;2022-12-29T08:20:46;99623.56;;;11.57;100.00
46087;BME280;31824;49.648;8.640;2022-12-29T08:23:57;99631.69;;;11.60;100.00
46087;BME280;31824;49.648;8.640;2022-12-29T08:27:01;99629.72;;;11.58;100.00
46087;BME280;31824;49.648;8.640;2022-12-29T08:30:20;99635.59;;;11.65;100.00
46087;BME280;31824;49.648;8.640;2022-12-29T08:33:30;99642.38;;;11.74;100.00
46087;BME280;31824;49.648;8.640;2022-12-29T08:36:36;99631.75;;;11.72;100.00
46087;BME280;31824;49.648;8.640;2022-12-29T08:39:39;99644.63;;;11.69;100.00
46087;BME280;31824;49.648;8.640;2022-12-29T08:42:41;99636.88;;;11.71;100.00
46087;BME280;31824;49.648;8.640;2022-12-29T08:45:43;99638.47;;;11.69;100.00
46087;BME280;31824;49.648;8.640;2022-12-29T08:48:46;99644.75;;;11.71;100.00
46087;BME280;31824;49.648;8.640;2022-12-29T08:51:48;99645.94;;;11.74;100.00
46087;BME280;31824;49.648;8.640;2022-12-29T08:54:51;99649.63;;;11.76;100.00
46087;BME280;31824;49.648;8.640;2022-12-29T08:57:55;99635.63;;;11.77;100.00
46087;BME280;31824;49.648;8.640;2022-12-29T09:01:01;99632.31;;;11.80;100.00
46087;BME280;31824;49.648;8.640;2022-12-29T09:04:10;99630.19;;;11.86;100.00
46087;BME280;31824;49.648;8.640;2022-12-29T09:07:18;99636.91;;;11.82;100.00
46087;BME280;31824;49.648;8.640;2022-12-29T09:10:20;99634.28;;;11.82;100.00
46087;BME280;31824;49.648;8.640;2022-12-29T09:13:22;99653.16;;;11.77;100.00
46087;BME280;31824;49.648;8.640;2022-12-29T09:16:25;99651.97;;;11.73;100.00
46087;BME280;31824;49.648;8.640;2022-12-29T09:19:30;99656.78;;;11.67;100.00
46087;BME280;31824;49.648;8.640;2022-12-29T09:22:33;99655.06;;;11.68;100.00
46087;BME280;31824;49.648;8.640;2022-12-29T09:25:36;99660.53;;;11.71;100.00
46087;BME280;31824;49.648;8.640;2022-12-29T09:28:38;99658.06;;;11.72;100.00
46087;BME280;31824;49.648;8.640;2022-12-29T09:31:45;99667.72;;;11.83;100.00
46087;BME280;31824;49.648;8.640;2022-12-29T09:34:48;99671.34;;;11.86;100.00
46087;BME280;31824;49.648;8.640;2022-12-29T09:37:50;99662.44;;;11.83;100.00
46087;BME280;31824;49.648;8.640;2022-12-29T09:40:54;99655.28;;;11.93;100.00
46087;BME280;31824;49.648;8.640;2022-12-29T09:44:03;99661.44;;;11.93;100.00
46087;BME280;31824;49.648;8.640;2022-12-29T09:47:09;99674.75;;;11.95;100.00
46087;BME280;31824;49.648;8.640;2022-12-29T09:50:22;99677.91;;;11.91;100.00
46087;BME280;31824;49.648;8.640;2022-12-29T09:53:29;99672.50;;;11.99;100.00
46087;BME280;31824;49.648;8.640;2022-12-29T09:56:33;99677.22;;;12.04;100.00
46087;BME280;31824;49.648;8.640;2022-12-29T09:59:39;99679.16;;;12.06;100.00
46087;BME280;31824;49.648;8.640;2022-12-29T10:02:49;99690.88;;;12.22;100.00
46087;BME280;31824;49.648;8.640;2022-12-29T10:05:59;99692.72;;;12.35;100.00
46087;BME280;31824;49.648;8.640;2022-12-29T10:09:12;99698.63;;;12.54;100.00
46087;BME280;31824;49.648;8.640;2022-12-29T10:12:25;99710.69;;;12.74;100.00
46087;BME280;31824;49.648;8.640;2022-12-29T10:15:42;99692.00;;;12.83;100.00
46087;BME280;31824;49.648;8.640;2022-12-29T10:19:13;99701.41;;;12.79;100.00
46087;BME280;31824;49.648;8.640;2022-12-29T10:22:31;99694.06;;;12.75;100.00
46087;BME280;31824;49.648;8.640;2022-12-29T10:25:38;99709.88;;;12.75;100.00
46087;BME280;31824;49.648;8.640;2022-12-29T10:28:48;99706.91;;;12.71;100.00
46087;BME280;31824;49.648;8.640;2022-12-29T10:31:57;99706.69;;;12.68;100.00
46087;BME280;31824;49.648;8.640;2022-12-29T10:35:05;99705.03;;;12.58;100.00
46087;BME280;31824;49.648;8.640;2022-12-29T10:38:20;99702.84;;;12.52;100.00
46087;BME280;31824;49.648;8.640;2022-12-29T10:41:36;99700.47;;;12.55;100.00
46087;BME280;31824;49.648;8.640;2022-12-29T10:44:41;99696.44;;;12.48;100.00
46087;BME280;31824;49.648;8.640;2022-12-29T10:47:56;99696.19;;;12.45;100.00
46087;BME280;31824;49.648;8.640;2022-12-29T10:51:05;99692.31;;;12.40;100.00
46087;BME280;31824;49.648;8.640;2022-12-29T10:54:16;99693.63;;;12.23;100.00
46087;BME280;31824;49.648;8.640;2022-12-29T10:57:25;99690.22;;;12.24;100.00
46087;BME280;31824;49.648;8.640;2022-12-29T11:00:31;99695.59;;;12.26;100.00
46087;BME280;31824;49.648;8.640;2022-12-29T11:03:43;99693.13;;;12.17;100.00
46087;BME280;31824;49.648;8.640;2022-12-29T11:06:50;99690.38;;;12.15;100.00
46087;BME280;31824;49.648;8.640;2022-12-29T11:09:53;99690.78;;;12.20;100.00
46087;BME280;31824;49.648;8.640;2022-12-29T11:13:00;99681.88;;;12.42;100.00
46087;BME280;31824;49.648;8.640;2022-12-29T11:16:03;99686.00;;;12.38;100.00
46087;BME280;31824;49.648;8.640;2022-12-29T11:19:05;99688.28;;;12.45;100.00
46087;BME280;31824;49.648;8.640;2022-12-29T11:22:20;99691.38;;;12.40;100.00
46087;BME280;31824;49.648;8.640;2022-12-29T11:25:26;99710.31;;;12.46;100.00
46087;BME280;31824;49.648;8.640;2022-12-29T11:28:30;99735.97;;;12.48;100.00
46087;BME280;31824;49.648;8.640;2022-12-29T11:31:40;99750.34;;;12.30;100.00
46087;BME280;31824;49.648;8.640;2022-12-29T11:34:43;99764.97;;;11.17;100.00
46087;BME280;31824;49.648;8.640;2022-12-29T11:37:45;99762.69;;;11.22;100.00
46087;BME280;31824;49.648;8.640;2022-12-29T11:40:49;99762.81;;;11.34;100.00
46087;BME280;31824;49.648;8.640;2022-12-29T11:43:52;99761.28;;;11.47;100.00
46087;BME280;31824;49.648;8.640;2022-12-29T11:46:54;99760.47;;;11.59;100.00
46087;BME280;31824;49.648;8.640;2022-12-29T11:50:02;99776.88;;;11.66;100.00
46087;BME280;31824;49.648;8.640;2022-12-29T11:53:15;99756.81;;;11.79;100.00
46087;BME280;31824;49.648;8.640;2022-12-29T11:56:20;99752.53;;;11.69;100.00
46087;BME280;31824;49.648;8.640;2022-12-29T11:59:36;99759.06;;;11.52;100.00
46087;BME280;31824;49.648;8.640;2022-12-29T12:02:45;99761.13;;;11.24;100.00
46087;BME280;31824;49.648;8.640;2022-12-29T12:05:55;99766.44;;;11.46;100.00
46087;BME280;31824;49.648;8.640;2022-12-29T12:09:10;99758.41;;;11.55;100.00
46087;BME280;31824;49.648;8.640;2022-12-29T12:12:23;99743.59;;;11.67;100.00
46087;BME280;31824;49.648;8.640;2022-12-29T12:15:36;99741.84;;;11.78;100.00
46087;BME280;31824;49.648;8.640;2022-12-29T12:18:52;99729.03;;;11.82;100.00
46087;BME280;31824;49.648;8.640;2022-12-29T12:22:00;99729.69;;;11.80;100.00
46087;BME280;31824;49.648;8.640;2022-12-29T12:25:10;99735.34;;;11.85;100.00
46087;BME280;31824;49.648;8.640;2022-12-29T12:28:20;99742.53;;;11.97;100.00
46087;BME280;31824;49.648;8.640;2022-12-29T12:31:27;99742.81;;;12.12;100.00
46087;BME280;31824;49.648;8.640;2022-12-29T12:34:40;99737.06;;;12.28;100.00
46087;BME280;31824;49.648;8.640;2022-12-29T12:37:57;99723.16;;;12.19;100.00
46087;BME280;31824;49.648;8.640;2022-12-29T12:41:08;99730.16;;;12.19;100.00
46087;BME280;31824;49.648;8.640;2022-12-29T12:44:23;99714.13;;;12.27;100.00
46087;BME280;31824;49.648;8.640;2022-12-29T12:47:32;99706.47;;;12.30;100.00
46087;BME280;31824;49.648;8.640;2022-12-29T12:50:49;99712.81;;;12.44;100.00
46087;BME280;31824;49.648;8.640;2022-12-29T12:54:05;99700.09;;;12.50;100.00
46087;BME280;31824;49.648;8.640;2022-12-29T12:57:27;99713.72;;;12.45;100.00
46087;BME280;31824;49.648;8.640;2022-12-29T13:00:43;99703.53;;;12.49;100.00
46087;BME280;31824;49.648;8.640;2022-12-29T13:04:08;99703.13;;;12.55;100.00
46087;BME280;31824;49.648;8.640;2022-12-29T13:07:24;99687.63;;;12.48;100.00
46087;BME280;31824;49.648;8.640;2022-12-29T13:10:35;99682.91;;;12.44;100.00
46087;BME280;31824;49.648;8.640;2022-12-29T13:13:55;99685.78;;;12.35;100.00
46087;BME280;31824;49.648;8.640;2022-12-29T13:17:10;99691.13;;;12.25;100.00
46087;BME280;31824;49.648;8.640;2022-12-29T13:20:23;99686.75;;;12.13;100.00
46087;BME280;31824;49.648;8.640;2022-12-29T13:23:33;99698.84;;;11.99;100.00
46087;BME280;31824;49.648;8.640;2022-12-29T13:26:43;99702.53;;;11.91;100.00
46087;BME280;31824;49.648;8.640;2022-12-29T13:29:56;99697.69;;;11.86;100.00
46087;BME280;31824;49.648;8.640;2022-12-29T13:33:07;99699.63;;;11.88;100.00
46087;BME280;31824;49.648;8.640;2022-12-29T13:36:25;99704.66;;;11.85;100.00
46087;BME280;31824;49.648;8.640;2022-12-29T13:39:33;99698.50;;;11.85;100.00
46087;BME280;31824;49.648;8.640;2022-12-29T13:42:37;99704.78;;;11.87;100.00
46087;BME280;31824;49.648;8.640;2022-12-29T13:45:40;99701.38;;;11.88;100.00
46087;BME280;31824;49.648;8.640;2022-12-29T13:48:53;99698.19;;;11.92;100.00
46087;BME280;31824;49.648;8.640;2022-12-29T13:52:08;99694.94;;;11.84;100.00
46087;BME280;31824;49.648;8.640;2022-12-29T13:55:26;99700.28;;;11.74;100.00
46087;BME280;31824;49.648;8.640;2022-12-29T13:58:34;99706.25;;;11.61;100.00
46087;BME280;31824;49.648;8.640;2022-12-29T14:01:43;99711.47;;;11.71;100.00
46087;BME280;31824;49.648;8.640;2022-12-29T14:04:59;99711.91;;;11.88;100.00
46087;BME280;31824;49.648;8.640;2022-12-29T14:08:15;99701.81;;;11.82;100.00
46087;BME280;31824;49.648;8.640;2022-12-29T14:11:22;99710.06;;;11.87;100.00
46087;BME280;31824;49.648;8.640;2022-12-29T14:14:32;99714.34;;;11.74;100.00
46087;BME280;31824;49.648;8.640;2022-12-29T14:17:40;99717.84;;;11.63;100.00
46087;BME280;31824;49.648;8.640;2022-12-29T14:21:02;99737.03;;;11.62;100.00
46087;BME280;31824;49.648;8.640;2022-12-29T14:24:42;99728.84;;;11.69;100.00
46087;BME280;31824;49.648;8.640;2022-12-29T14:27:53;99747.00;;;11.44;100.00
46087;BME280;31824;49.648;8.640;2022-12-29T14:31:18;99750.50;;;11.12;100.00
46087;BME280;31824;49.648;8.640;2022-12-29T14:34:44;99765.19;;;10.67;100.00
46087;BME280;31824;49.648;8.640;2022-12-29T14:38:21;99766.78;;;10.44;100.00
46087;BME280;31824;49.648;8.640;2022-12-29T14:41:27;99768.94;;;10.19;100.00
46087;BME280;31824;49.648;8.640;2022-12-29T14:44:46;99763.03;;;10.01;100.00
46087;BME280;31824;49.648;8.640;2022-12-29T14:47:50;99761.31;;;9.91;100.00
46087;BME280;31824;49.648;8.640;2022-12-29T14:50:53;99770.56;;;9.77;100.00
46087;BME280;31824;49.648;8.640;2022-12-29T14:53:57;99750.13;;;9.84;100.00
46087;BME280;31824;49.648;8.640;2022-12-29T14:56:59;99777.66;;;9.78;100.00
46087;BME280;31824;49.648;8.640;2022-12-29T15:00:22;99784.06;;;9.72;100.00
46087;BME280;31824;49.648;8.640;2022-12-29T15:03:32;99772.59;;;9.61;100.00
46087;BME280;31824;49.648;8.640;2022-12-29T15:06:37;99778.09;;;9.54;100.00
46087;BME280;31824;49.648;8.640;2022-12-29T15:09:47;99778.59;;;9.50;100.00
46087;BME280;31824;49.648;8.640;2022-12-29T15:12:55;99769.66;;;9.48;100.00
46087;BME280;31824;49.648;8.640;2022-12-29T15:15:57;99767.91;;;9.38;100.00
46087;BME280;31824;49.648;8.640;2022-12-29T15:19:02;99789.97;;;9.40;100.00
46087;BME280;31824;49.648;8.640;2022-12-29T15:22:05;99774.38;;;9.41;100.00
46087;BME280;31824;49.648;8.640;2022-12-29T15:25:15;99761.13;;;9.40;100.00
46087;BME280;31824;49.648;8.640;2022-12-29T15:28:20;99772.41;;;9.39;100.00
46087;BME280;31824;49.648;8.640;2022-12-29T15:31:24;99788.53;;;9.43;100.00
46087;BME280;31824;49.648;8.640;2022-12-29T15:34:37;99801.97;;;9.27;100.00
46087;BME280;31824;49.648;8.640;2022-12-29T15:37:43;99800.69;;;9.13;100.00
46087;BME280;31824;49.648;8.640;2022-12-29T15:40:47;99811.66;;;8.90;100.00
46087;BME280;31824;49.648;8.640;2022-12-29T15:44:08;99812.66;;;9.01;100.00
46087;BME280;31824;49.648;8.640;2022-12-29T15:47:19;99829.31;;;9.02;100.00
46087;BME280;31824;49.648;8.640;2022-12-29T15:50:24;99828.97;;;9.07;100.00
46087;BME280;31824;49.648;8.640;2022-12-29T15:53:30;99834.19;;;9.07;100.00
46087;BME280;31824;49.648;8.640;2022-12-29T15:56:35;99840.44;;;9.18;100.00
46087;BME280;31824;49.648;8.640;2022-12-29T15:59:46;99832.00;;;9.12;100.00
46087;BME280;31824;49.648;8.640;2022-12-29T16:02:50;99826.63;;;9.10;100.00
46087;BME280;31824;49.648;8.640;2022-12-29T16:05:55;99834.19;;;9.07;100.00
46087;BME280;31824;49.648;8.640;2022-12-29T16:09:04;99823.91;;;9.19;100.00
46087;BME280;31824;49.648;8.640;2022-12-29T16:12:16;99832.44;;;9.17;100.00
46087;BME280;31824;49.648;8.640;2022-12-29T16:15:25;99838.59;;;9.17;100.00
46087;BME280;31824;49.648;8.640;2022-12-29T16:18:35;99844.72;;;9.18;100.00
46087;BME280;31824;49.648;8.640;2022-12-29T16:21:38;99851.31;;;9.23;100.00
46087;BME280;31824;49.648;8.640;2022-12-29T16:24:45;99860.47;;;9.18;100.00
46087;BME280;31824;49.648;8.640;2022-12-29T16:27:49;99857.78;;;9.26;100.00
46087;BME280;31824;49.648;8.640;2022-12-29T16:31:04;99860.41;;;9.26;100.00
46087;BME280;31824;49.648;8.640;2022-12-29T16:34:20;99857.50;;;9.23;100.00